sensor_id;sensor_type;location;lat;lon;timestamp;P1;durP1;ratioP1;P2;durP2;ratioP2
21099;SDS011;10708;50.824;4.408;2023-02-01T00:03:19;52.37;;;30.67;;
21099;SDS011;10708;50.824;4.408;2023-02-01T00:08:22;52.13;;;38.30;;
21099;SDS011;10708;50.824;4.408;2023-02-01T00:13:26;47.67;;;38.17;;
21099;SDS011;10708;50.824;4.408;2023-02-01T00:18:30;46.90;;;31.55;;
21099;SDS011;10708;50.824;4.408;2023-02-01T00:23:33;42.73;;;23.93;;
21099;SDS011;10708;50.824;4.408;2023-02-01T00:28:38;45.08;;;23.85;;
21099;SDS011;10708;50.824;4.408;2023-02-01T00:33:40;45.22;;;27.40;;
21099;SDS011;10708;50.824;4.408;2023-02-01T00:38:42;43.67;;;29.52;;
21099;SDS011;10708;50.824;4.408;2023-02-01T00:43:47;50.10;;;41.55;;
21099;SDS011;10708;50.824;4.408;2023-02-01T00:48:49;40.03;;;31.45;;
21099;SDS011;10708;50.824;4.408;2023-02-01T00:53:52;34.97;;;22.67;;
21099;SDS011;10708;50.824;4.408;2023-02-01T00:58:56;39.05;;;26.88;;
21099;SDS011;10708;50.824;4.408;2023-02-01T01:03:59;31.23;;;18.27;;
21099;SDS011;10708;50.824;4.408;2023-02-01T01:09:03;31.85;;;16.15;;
21099;SDS011;10708;50.824;4.408;2023-02-01T01:14:08;32.90;;;21.05;;
21099;SDS011;10708;50.824;4.408;2023-02-01T01:19:10;28.98;;;19.63;;
21099;SDS011;10708;50.824;4.408;2023-02-01T01:24:13;33.40;;;21.90;;
21099;SDS011;10708;50.824;4.408;2023-02-01T01:29:16;27.75;;;18.42;;
21099;SDS011;10708;50.824;4.408;2023-02-01T01:34:19;29.33;;;15.17;;
21099;SDS011;10708;50.824;4.408;2023-02-01T01:39:21;22.33;;;14.52;;
21099;SDS011;10708;50.824;4.408;2023-02-01T01:50:04;26.43;;;11.83;;
21099;SDS011;10708;50.824;4.408;2023-02-01T01:55:12;28.00;;;20.30;;
21099;SDS011;10708;50.824;4.408;2023-02-01T02:00:17;21.33;;;9.02;;
21099;SDS011;10708;50.824;4.408;2023-02-01T02:05:22;22.73;;;7.43;;
21099;SDS011;10708;50.824;4.408;2023-02-01T02:10:24;23.17;;;10.80;;
21099;SDS011;10708;50.824;4.408;2023-02-01T02:15:52;27.65;;;11.85;;
21099;SDS011;10708;50.824;4.408;2023-02-01T02:21:06;22.45;;;12.30;;
21099;SDS011;10708;50.824;4.408;2023-02-01T02:26:19;17.50;;;7.03;;
21099;SDS011;10708;50.824;4.408;2023-02-01T02:37:14;21.50;;;8.57;;
21099;SDS011;10708;50.824;4.408;2023-02-01T02:42:25;25.27;;;8.45;;
21099;SDS011;10708;50.824;4.408;2023-02-01T02:47:53;23.58;;;10.88;;
21099;SDS011;10708;50.824;4.408;2023-02-01T02:53:00;29.60;;;9.48;;
21099;SDS011;10708;50.824;4.408;2023-02-01T02:58:23;24.43;;;8.27;;
21099;SDS011;10708;50.824;4.408;2023-02-01T03:03:43;26.83;;;8.17;;
21099;SDS011;10708;50.824;4.408;2023-02-01T03:09:06;18.90;;;7.20;;
21099;SDS011;10708;50.824;4.408;2023-02-01T03:14:15;23.70;;;7.40;;
21099;SDS011;10708;50.824;4.408;2023-02-01T03:19:21;25.33;;;9.20;;
21099;SDS011;10708;50.824;4.408;2023-02-01T03:24:27;20.43;;;8.60;;
21099;SDS011;10708;50.824;4.408;2023-02-01T03:29:37;26.83;;;8.00;;
21099;SDS011;10708;50.824;4.408;2023-02-01T03:34:43;22.10;;;7.10;;
21099;SDS011;10708;50.824;4.408;2023-02-01T03:39:48;22.67;;;7.18;;
21099;SDS011;10708;50.824;4.408;2023-02-01T03:45:00;26.85;;;7.78;;
21099;SDS011;10708;50.824;4.408;2023-02-01T03:50:09;26.02;;;7.80;;
21099;SDS011;10708;50.824;4.408;2023-02-01T03:55:17;24.77;;;8.57;;
21099;SDS011;10708;50.824;4.408;2023-02-01T04:00:22;25.47;;;8.80;;
21099;SDS011;10708;50.824;4.408;2023-02-01T04:05:25;25.45;;;8.18;;
21099;SDS011;10708;50.824;4.408;2023-02-01T04:10:29;23.83;;;8.07;;
21099;SDS011;10708;50.824;4.408;2023-02-01T04:15:31;24.83;;;9.50;;
21099;SDS011;10708;50.824;4.408;2023-02-01T04:20:35;21.55;;;8.90;;
21099;SDS011;10708;50.824;4.408;2023-02-01T04:25:38;23.70;;;10.13;;
21099;SDS011;10708;50.824;4.408;2023-02-01T04:30:41;23.67;;;12.07;;
21099;SDS011;10708;50.824;4.408;2023-02-01T04:35:43;21.70;;;12.27;;
21099;SDS011;10708;50.824;4.408;2023-02-01T04:40:48;24.92;;;13.48;;
21099;SDS011;10708;50.824;4.408;2023-02-01T04:45:50;24.87;;;9.27;;
21099;SDS011;10708;50.824;4.408;2023-02-01T04:50:53;28.45;;;11.05;;
21099;SDS011;10708;50.824;4.408;2023-02-01T04:55:56;24.67;;;12.20;;
21099;SDS011;10708;50.824;4.408;2023-02-01T05:00:59;24.27;;;11.80;;
21099;SDS011;10708;50.824;4.408;2023-02-01T05:06:04;25.67;;;11.05;;
21099;SDS011;10708;50.824;4.408;2023-02-01T05:11:08;31.60;;;17.58;;
21099;SDS011;10708;50.824;4.408;2023-02-01T05:16:31;26.73;;;9.23;;
21099;SDS011;10708;50.824;4.408;2023-02-01T05:21:34;23.07;;;9.87;;
21099;SDS011;10708;50.824;4.408;2023-02-01T05:26:38;22.02;;;10.25;;
21099;SDS011;10708;50.824;4.408;2023-02-01T05:31:42;25.48;;;11.68;;
21099;SDS011;10708;50.824;4.408;2023-02-01T05:36:46;21.17;;;10.00;;
21099;SDS011;10708;50.824;4.408;2023-02-01T05:41:51;24.80;;;10.70;;
21099;SDS011;10708;50.824;4.408;2023-02-01T05:46:54;25.00;;;9.68;;
21099;SDS011;10708;50.824;4.408;2023-02-01T05:51:56;24.48;;;12.63;;
21099;SDS011;10708;50.824;4.408;2023-02-01T05:57:00;23.30;;;10.47;;
21099;SDS011;10708;50.824;4.408;2023-02-01T06:02:03;28.37;;;11.77;;
21099;SDS011;10708;50.824;4.408;2023-02-01T06:07:05;25.13;;;10.30;;
21099;SDS011;10708;50.824;4.408;2023-02-01T06:12:11;21.48;;;10.23;;
21099;SDS011;10708;50.824;4.408;2023-02-01T06:17:13;27.33;;;11.30;;
21099;SDS011;10708;50.824;4.408;2023-02-01T06:22:15;29.65;;;13.77;;
21099;SDS011;10708;50.824;4.408;2023-02-01T06:27:19;27.90;;;15.20;;
21099;SDS011;10708;50.824;4.408;2023-02-01T06:32:21;28.90;;;11.90;;
21099;SDS011;10708;50.824;4.408;2023-02-01T06:37:24;29.88;;;12.25;;
21099;SDS011;10708;50.824;4.408;2023-02-01T06:42:29;23.15;;;11.68;;
21099;SDS011;10708;50.824;4.408;2023-02-01T06:47:32;31.75;;;12.75;;
21099;SDS011;10708;50.824;4.408;2023-02-01T06:52:35;26.07;;;9.87;;
21099;SDS011;10708;50.824;4.408;2023-02-01T06:57:39;24.88;;;10.90;;
21099;SDS011;10708;50.824;4.408;2023-02-01T07:02:41;26.27;;;10.38;;
21099;SDS011;10708;50.824;4.408;2023-02-01T07:07:43;26.83;;;11.75;;
21099;SDS011;10708;50.824;4.408;2023-02-01T07:12:48;26.77;;;10.80;;
21099;SDS011;10708;50.824;4.408;2023-02-01T07:17:51;29.37;;;11.60;;
21099;SDS011;10708;50.824;4.408;2023-02-01T07:22:55;26.55;;;13.55;;
21099;SDS011;10708;50.824;4.408;2023-02-01T07:28:00;32.10;;;12.30;;
21099;SDS011;10708;50.824;4.408;2023-02-01T07:33:03;32.23;;;12.63;;
21099;SDS011;10708;50.824;4.408;2023-02-01T07:38:05;26.38;;;16.48;;
21099;SDS011;10708;50.824;4.408;2023-02-01T07:43:09;33.27;;;13.33;;
21099;SDS011;10708;50.824;4.408;2023-02-01T07:48:11;31.48;;;14.75;;
21099;SDS011;10708;50.824;4.408;2023-02-01T07:53:13;25.70;;;10.75;;
21099;SDS011;10708;50.824;4.408;2023-02-01T07:58:17;25.40;;;11.97;;
21099;SDS011;10708;50.824;4.408;2023-02-01T08:03:20;28.83;;;12.45;;
21099;SDS011;10708;50.824;4.408;2023-02-01T08:08:22;31.77;;;12.90;;
21099;SDS011;10708;50.824;4.408;2023-02-01T08:13:26;28.35;;;13.50;;
21099;SDS011;10708;50.824;4.408;2023-02-01T08:18:30;32.90;;;11.27;;
21099;SDS011;10708;50.824;4.408;2023-02-01T08:23:33;28.77;;;10.47;;
21099;SDS011;10708;50.824;4.408;2023-02-01T08:28:37;28.50;;;12.23;;
21099;SDS011;10708;50.824;4.408;2023-02-01T08:33:41;31.15;;;9.65;;
21099;SDS011;10708;50.824;4.408;2023-02-01T08:38:44;28.15;;;7.78;;
21099;SDS011;10708;50.824;4.408;2023-02-01T08:43:48;28.00;;;10.63;;
21099;SDS011;10708;50.824;4.408;2023-02-01T08:48:51;22.60;;;9.40;;
21099;SDS011;10708;50.824;4.408;2023-02-01T08:53:54;27.25;;;10.45;;
21099;SDS011;10708;50.824;4.408;2023-02-01T08:58:58;29.20;;;9.38;;
21099;SDS011;10708;50.824;4.408;2023-02-01T09:04:00;30.73;;;15.20;;
21099;SDS011;10708;50.824;4.408;2023-02-01T09:09:03;44.53;;;39.78;;
21099;SDS011;10708;50.824;4.408;2023-02-01T09:14:07;27.27;;;13.60;;
21099;SDS011;10708;50.824;4.408;2023-02-01T09:19:09;26.53;;;12.03;;
21099;SDS011;10708;50.824;4.408;2023-02-01T09:24:12;28.17;;;14.98;;
21099;SDS011;10708;50.824;4.408;2023-02-01T09:29:16;32.60;;;17.15;;
21099;SDS011;10708;50.824;4.408;2023-02-01T09:34:19;24.38;;;13.93;;
21099;SDS011;10708;50.824;4.408;2023-02-01T09:39:21;28.63;;;14.97;;
21099;SDS011;10708;50.824;4.408;2023-02-01T09:44:30;29.25;;;15.00;;
21099;SDS011;10708;50.824;4.408;2023-02-01T09:49:48;31.90;;;20.02;;
21099;SDS011;10708;50.824;4.408;2023-02-01T09:54:58;30.63;;;22.87;;
21099;SDS011;10708;50.824;4.408;2023-02-01T10:00:06;29.60;;;16.83;;
21099;SDS011;10708;50.824;4.408;2023-02-01T10:05:16;211.68;;;198.75;;
21099;SDS011;10708;50.824;4.408;2023-02-01T10:10:29;96.55;;;89.88;;
21099;SDS011;10708;50.824;4.408;2023-02-01T10:15:44;41.60;;;37.38;;
21099;SDS011;10708;50.824;4.408;2023-02-01T10:20:57;95.30;;;88.17;;
21099;SDS011;10708;50.824;4.408;2023-02-01T10:26:17;108.38;;;100.80;;
21099;SDS011;10708;50.824;4.408;2023-02-01T10:31:24;118.10;;;110.43;;
21099;SDS011;10708;50.824;4.408;2023-02-01T10:36:29;71.72;;;66.65;;
21099;SDS011;10708;50.824;4.408;2023-02-01T10:41:36;79.13;;;72.50;;
21099;SDS011;10708;50.824;4.408;2023-02-01T10:46:42;266.52;;;249.88;;
21099;SDS011;10708;50.824;4.408;2023-02-01T10:51:45;119.45;;;111.60;;
21099;SDS011;10708;50.824;4.408;2023-02-01T10:56:51;150.90;;;141.27;;
21099;SDS011;10708;50.824;4.408;2023-02-01T11:01:59;93.13;;;86.47;;
21099;SDS011;10708;50.824;4.408;2023-02-01T11:07:05;60.60;;;56.03;;
21099;SDS011;10708;50.824;4.408;2023-02-01T11:12:20;188.23;;;176.77;;
21099;SDS011;10708;50.824;4.408;2023-02-01T11:17:32;151.53;;;142.27;;
21099;SDS011;10708;50.824;4.408;2023-02-01T11:22:36;186.02;;;175.13;;
21099;SDS011;10708;50.824;4.408;2023-02-01T11:27:39;200.65;;;188.20;;
21099;SDS011;10708;50.824;4.408;2023-02-01T11:32:43;133.38;;;124.72;;
21099;SDS011;10708;50.824;4.408;2023-02-01T11:37:50;292.67;;;273.33;;
21099;SDS011;10708;50.824;4.408;2023-02-01T11:43:00;102.10;;;95.55;;
21099;SDS011;10708;50.824;4.408;2023-02-01T11:48:14;106.55;;;99.85;;
21099;SDS011;10708;50.824;4.408;2023-02-01T11:53:20;78.35;;;73.22;;
21099;SDS011;10708;50.824;4.408;2023-02-01T12:04:39;147.63;;;138.65;;
21099;SDS011;10708;50.824;4.408;2023-02-01T12:10:11;223.35;;;210.80;;
21099;SDS011;10708;50.824;4.408;2023-02-01T12:15:26;153.07;;;144.15;;
21099;SDS011;10708;50.824;4.408;2023-02-01T12:20:47;239.68;;;226.50;;
21099;SDS011;10708;50.824;4.408;2023-02-01T12:26:08;319.13;;;301.38;;
21099;SDS011;10708;50.824;4.408;2023-02-01T12:31:31;232.93;;;219.27;;
21099;SDS011;10708;50.824;4.408;2023-02-01T12:36:46;134.48;;;125.53;;
21099;SDS011;10708;50.824;4.408;2023-02-01T12:41:56;210.83;;;198.07;;
21099;SDS011;10708;50.824;4.408;2023-02-01T12:47:05;138.60;;;130.40;;
21099;SDS011;10708;50.824;4.408;2023-02-01T12:52:15;110.72;;;104.05;;
21099;SDS011;10708;50.824;4.408;2023-02-01T12:57:23;350.73;;;330.93;;
21099;SDS011;10708;50.824;4.408;2023-02-01T13:02:30;369.53;;;347.53;;
21099;SDS011;10708;50.824;4.408;2023-02-01T13:07:43;212.60;;;200.18;;
21099;SDS011;10708;50.824;4.408;2023-02-01T13:12:51;148.13;;;139.50;;
21099;SDS011;10708;50.824;4.408;2023-02-01T13:17:58;104.60;;;98.63;;
21099;SDS011;10708;50.824;4.408;2023-02-01T13:23:08;113.10;;;106.17;;
21099;SDS011;10708;50.824;4.408;2023-02-01T13:28:17;139.50;;;131.55;;
21099;SDS011;10708;50.824;4.408;2023-02-01T13:33:42;142.68;;;134.43;;
21099;SDS011;10708;50.824;4.408;2023-02-01T13:44:28;233.30;;;219.17;;
21099;SDS011;10708;50.824;4.408;2023-02-01T13:49:36;226.27;;;212.70;;
21099;SDS011;10708;50.824;4.408;2023-02-01T13:54:41;272.55;;;255.43;;
21099;SDS011;10708;50.824;4.408;2023-02-01T14:05:07;175.85;;;165.93;;
21099;SDS011;10708;50.824;4.408;2023-02-01T14:16:12;128.00;;;120.77;;
21099;SDS011;10708;50.824;4.408;2023-02-01T14:21:17;236.15;;;222.00;;
21099;SDS011;10708;50.824;4.408;2023-02-01T14:26:23;245.38;;;230.13;;
21099;SDS011;10708;50.824;4.408;2023-02-01T14:31:33;141.48;;;133.38;;
21099;SDS011;10708;50.824;4.408;2023-02-01T14:36:40;315.20;;;296.90;;
21099;SDS011;10708;50.824;4.408;2023-02-01T14:41:47;205.55;;;193.50;;
21099;SDS011;10708;50.824;4.408;2023-02-01T14:47:04;261.10;;;246.23;;
21099;SDS011;10708;50.824;4.408;2023-02-01T14:52:13;296.48;;;280.05;;
21099;SDS011;10708;50.824;4.408;2023-02-01T14:57:18;189.80;;;178.50;;
21099;SDS011;10708;50.824;4.408;2023-02-01T15:02:25;263.50;;;248.38;;
21099;SDS011;10708;50.824;4.408;2023-02-01T15:07:28;268.25;;;252.93;;
21099;SDS011;10708;50.824;4.408;2023-02-01T15:12:31;229.20;;;215.77;;
21099;SDS011;10708;50.824;4.408;2023-02-01T15:17:35;132.23;;;124.47;;
21099;SDS011;10708;50.824;4.408;2023-02-01T15:22:37;158.90;;;149.53;;
21099;SDS011;10708;50.824;4.408;2023-02-01T15:27:40;282.33;;;262.98;;
21099;SDS011;10708;50.824;4.408;2023-02-01T15:32:44;122.28;;;114.78;;
21099;SDS011;10708;50.824;4.408;2023-02-01T15:37:46;130.88;;;123.13;;
21099;SDS011;10708;50.824;4.408;2023-02-01T15:42:50;188.83;;;178.07;;
21099;SDS011;10708;50.824;4.408;2023-02-01T15:47:56;122.30;;;114.77;;
21099;SDS011;10708;50.824;4.408;2023-02-01T15:53:00;104.57;;;97.93;;
21099;SDS011;10708;50.824;4.408;2023-02-01T15:58:04;145.30;;;136.88;;
21099;SDS011;10708;50.824;4.408;2023-02-01T16:03:20;152.57;;;143.43;;
21099;SDS011;10708;50.824;4.408;2023-02-01T16:08:30;173.47;;;163.57;;
21099;SDS011;10708;50.824;4.408;2023-02-01T16:13:35;188.07;;;176.88;;
21099;SDS011;10708;50.824;4.408;2023-02-01T16:18:38;307.30;;;289.97;;
21099;SDS011;10708;50.824;4.408;2023-02-01T16:23:41;273.97;;;258.60;;
21099;SDS011;10708;50.824;4.408;2023-02-01T16:28:43;294.88;;;278.00;;
21099;SDS011;10708;50.824;4.408;2023-02-01T16:33:48;304.42;;;286.38;;
21099;SDS011;10708;50.824;4.408;2023-02-01T16:38:52;204.38;;;192.45;;
21099;SDS011;10708;50.824;4.408;2023-02-01T16:43:54;235.57;;;222.05;;
21099;SDS011;10708;50.824;4.408;2023-02-01T16:48:59;276.37;;;260.83;;
21099;SDS011;10708;50.824;4.408;2023-02-01T16:54:02;319.90;;;300.95;;
21099;SDS011;10708;50.824;4.408;2023-02-01T16:59:05;190.43;;;178.48;;
21099;SDS011;10708;50.824;4.408;2023-02-01T17:04:10;197.07;;;185.13;;
21099;SDS011;10708;50.824;4.408;2023-02-01T17:09:12;205.95;;;193.02;;
21099;SDS011;10708;50.824;4.408;2023-02-01T17:14:16;212.63;;;199.87;;
21099;SDS011;10708;50.824;4.408;2023-02-01T17:19:21;194.18;;;182.40;;
21099;SDS011;10708;50.824;4.408;2023-02-01T17:24:26;241.52;;;227.73;;
21099;SDS011;10708;50.824;4.408;2023-02-01T17:29:30;181.75;;;169.90;;
21099;SDS011;10708;50.824;4.408;2023-02-01T17:34:34;153.93;;;144.25;;
21099;SDS011;10708;50.824;4.408;2023-02-01T17:39:36;100.20;;;93.13;;
21099;SDS011;10708;50.824;4.408;2023-02-01T17:44:57;170.25;;;159.60;;
21099;SDS011;10708;50.824;4.408;2023-02-01T17:50:04;54.63;;;50.28;;
21099;SDS011;10708;50.824;4.408;2023-02-01T17:55:13;61.78;;;56.67;;
21099;SDS011;10708;50.824;4.408;2023-02-01T18:00:18;166.98;;;156.80;;
21099;SDS011;10708;50.824;4.408;2023-02-01T18:05:25;138.68;;;129.80;;
21099;SDS011;10708;50.824;4.408;2023-02-01T18:10:30;42.58;;;38.22;;
21099;SDS011;10708;50.824;4.408;2023-02-01T18:15:33;52.63;;;47.90;;
21099;SDS011;10708;50.824;4.408;2023-02-01T18:20:37;80.03;;;73.70;;
21099;SDS011;10708;50.824;4.408;2023-02-01T18:25:43;79.37;;;72.87;;
21099;SDS011;10708;50.824;4.408;2023-02-01T18:30:47;89.68;;;83.22;;
21099;SDS011;10708;50.824;4.408;2023-02-01T18:35:52;64.60;;;59.10;;
21099;SDS011;10708;50.824;4.408;2023-02-01T18:40:55;189.45;;;177.38;;
21099;SDS011;10708;50.824;4.408;2023-02-01T18:45:58;129.20;;;120.50;;
21099;SDS011;10708;50.824;4.408;2023-02-01T18:51:02;243.38;;;228.75;;
21099;SDS011;10708;50.824;4.408;2023-02-01T18:56:05;222.65;;;208.57;;
21099;SDS011;10708;50.824;4.408;2023-02-01T19:01:10;165.65;;;155.38;;
21099;SDS011;10708;50.824;4.408;2023-02-01T19:06:17;188.35;;;176.73;;
21099;SDS011;10708;50.824;4.408;2023-02-01T19:11:22;250.02;;;235.25;;
21099;SDS011;10708;50.824;4.408;2023-02-01T19:16:24;178.10;;;166.88;;
21099;SDS011;10708;50.824;4.408;2023-02-01T19:21:28;103.75;;;95.70;;
21099;SDS011;10708;50.824;4.408;2023-02-01T19:26:30;159.30;;;148.30;;
21099;SDS011;10708;50.824;4.408;2023-02-01T19:31:33;103.55;;;95.85;;
21099;SDS011;10708;50.824;4.408;2023-02-01T19:36:36;132.97;;;123.60;;
21099;SDS011;10708;50.824;4.408;2023-02-01T19:41:40;157.82;;;146.48;;
21099;SDS011;10708;50.824;4.408;2023-02-01T19:46:43;180.00;;;168.40;;
21099;SDS011;10708;50.824;4.408;2023-02-01T19:51:47;152.18;;;141.77;;
21099;SDS011;10708;50.824;4.408;2023-02-01T19:56:49;104.15;;;96.70;;
21099;SDS011;10708;50.824;4.408;2023-02-01T20:01:51;166.35;;;154.98;;
21099;SDS011;10708;50.824;4.408;2023-02-01T20:06:55;178.57;;;166.38;;
21099;SDS011;10708;50.824;4.408;2023-02-01T20:11:58;263.58;;;246.55;;
21099;SDS011;10708;50.824;4.408;2023-02-01T20:17:00;109.55;;;101.20;;
21099;SDS011;10708;50.824;4.408;2023-02-01T20:22:04;116.85;;;108.40;;
21099;SDS011;10708;50.824;4.408;2023-02-01T20:27:07;164.00;;;153.15;;
21099;SDS011;10708;50.824;4.408;2023-02-01T20:32:12;191.07;;;178.57;;
21099;SDS011;10708;50.824;4.408;2023-02-01T20:37:16;97.55;;;90.25;;
21099;SDS011;10708;50.824;4.408;2023-02-01T20:42:19;123.35;;;114.07;;
21099;SDS011;10708;50.824;4.408;2023-02-01T20:47:21;110.77;;;102.20;;
21099;SDS011;10708;50.824;4.408;2023-02-01T20:52:25;104.25;;;95.90;;
21099;SDS011;10708;50.824;4.408;2023-02-01T20:57:27;101.10;;;92.97;;
21099;SDS011;10708;50.824;4.408;2023-02-01T21:02:30;113.00;;;104.97;;
21099;SDS011;10708;50.824;4.408;2023-02-01T21:07:33;152.60;;;142.00;;
21099;SDS011;10708;50.824;4.408;2023-02-01T21:12:36;106.10;;;97.88;;
21099;SDS011;10708;50.824;4.408;2023-02-01T21:17:39;161.37;;;150.17;;
21099;SDS011;10708;50.824;4.408;2023-02-01T21:22:43;112.43;;;104.67;;
21099;SDS011;10708;50.824;4.408;2023-02-01T21:27:45;86.25;;;79.55;;
21099;SDS011;10708;50.824;4.408;2023-02-01T21:32:47;111.73;;;104.13;;
21099;SDS011;10708;50.824;4.408;2023-02-01T21:37:51;58.97;;;53.38;;
21099;SDS011;10708;50.824;4.408;2023-02-01T21:42:54;75.77;;;69.27;;
21099;SDS011;10708;50.824;4.408;2023-02-01T21:47:56;66.70;;;60.60;;
21099;SDS011;10708;50.824;4.408;2023-02-01T21:53:02;97.47;;;89.72;;
21099;SDS011;10708;50.824;4.408;2023-02-01T21:58:06;103.35;;;95.70;;
21099;SDS011;10708;50.824;4.408;2023-02-01T22:03:12;139.63;;;130.15;;
21099;SDS011;10708;50.824;4.408;2023-02-01T22:08:16;152.77;;;141.75;;
21099;SDS011;10708;50.824;4.408;2023-02-01T22:13:18;92.97;;;85.97;;
21099;SDS011;10708;50.824;4.408;2023-02-01T22:18:20;117.43;;;107.80;;
21099;SDS011;10708;50.824;4.408;2023-02-01T22:23:24;118.57;;;110.20;;
21099;SDS011;10708;50.824;4.408;2023-02-01T22:28:27;125.18;;;116.50;;
21099;SDS011;10708;50.824;4.408;2023-02-01T22:33:29;186.77;;;174.57;;
21099;SDS011;10708;50.824;4.408;2023-02-01T22:38:34;230.70;;;217.27;;
21099;SDS011;10708;50.824;4.408;2023-02-01T22:43:37;225.90;;;212.20;;
21099;SDS011;10708;50.824;4.408;2023-02-01T22:48:40;306.92;;;288.33;;
21099;SDS011;10708;50.824;4.408;2023-02-01T22:53:45;414.67;;;388.60;;
21099;SDS011;10708;50.824;4.408;2023-02-01T22:58:47;490.67;;;458.58;;
21099;SDS011;10708;50.824;4.408;2023-02-01T23:03:50;342.30;;;321.40;;
21099;SDS011;10708;50.824;4.408;2023-02-01T23:08:57;343.25;;;322.17;;
21099;SDS011;10708;50.824;4.408;2023-02-01T23:14:01;511.37;;;479.50;;
21099;SDS011;10708;50.824;4.408;2023-02-01T23:19:04;464.48;;;436.15;;
21099;SDS011;10708;50.824;4.408;2023-02-01T23:24:08;525.45;;;492.67;;
21099;SDS011;10708;50.824;4.408;2023-02-01T23:29:14;637.10;;;593.75;;
21099;SDS011;10708;50.824;4.408;2023-02-01T23:34:17;443.58;;;413.77;;
21099;SDS011;10708;50.824;4.408;2023-02-01T23:39:21;885.45;;;817.63;;
21099;SDS011;10708;50.824;4.408;2023-02-01T23:44:23;640.97;;;594.15;;
21099;SDS011;10708;50.824;4.408;2023-02-01T23:49:26;627.85;;;582.38;;
21099;SDS011;10708;50.824;4.408;2023-02-01T23:54:29;686.95;;;637.22;;
21099;SDS011;10708;50.824;4.408;2023-02-01T23:59:32;746.58;;;691.80;;
